createdAt,value
2019-01-20T00:00:19.651Z,8.80
2019-01-20T00:02:52.307Z,8.80
2019-01-20T00:05:23.750Z,8.80
2019-01-20T00:07:55.111Z,8.80
2019-01-20T00:10:26.457Z,8.80
2019-01-20T00:12:57.822Z,8.70
2019-01-20T00:15:29.217Z,8.70
2019-01-20T00:18:00.559Z,8.70
2019-01-20T00:20:31.686Z,8.70
2019-01-20T00:23:04.103Z,8.70
2019-01-20T00:25:35.332Z,8.70
2019-01-20T00:28:06.746Z,8.70
2019-01-20T00:30:38.084Z,8.70
2019-01-20T00:33:09.522Z,8.70
2019-01-20T00:35:40.810Z,8.70
2019-01-20T00:38:12.063Z,8.70
2019-01-20T00:40:43.344Z,8.70
2019-01-20T00:43:14.591Z,8.80
2019-01-20T00:45:45.964Z,8.80
2019-01-20T00:48:17.348Z,8.80
2019-01-20T00:50:48.747Z,8.80
2019-01-20T00:53:31.906Z,8.70
2019-01-20T00:56:03.211Z,8.70
2019-01-20T00:58:46.092Z,8.70
2019-01-20T01:01:17.423Z,8.70
2019-01-20T01:03:48.667Z,8.70
2019-01-20T01:06:21.009Z,8.70
2019-01-20T01:08:53.480Z,8.60
2019-01-20T01:11:31.382Z,8.60
2019-01-20T01:13:57.601Z,8.60
2019-01-20T01:16:28.932Z,8.60
2019-01-20T01:19:00.165Z,8.60
2019-01-20T01:21:31.663Z,8.60
2019-01-20T01:24:03.002Z,8.60
2019-01-20T01:26:34.354Z,8.60
2019-01-20T01:29:05.833Z,8.60
2019-01-20T01:31:38.694Z,8.60
2019-01-20T01:34:09.831Z,8.60
2019-01-20T01:36:41.282Z,8.60
2019-01-20T01:39:12.494Z,8.60
2019-01-20T01:41:43.814Z,8.60
2019-01-20T01:44:15.062Z,8.60
2019-01-20T01:46:46.255Z,8.50
2019-01-20T01:49:17.505Z,8.60
2019-01-20T01:51:49.817Z,8.60
2019-01-20T01:54:20.976Z,8.60
2019-01-20T01:56:52.074Z,8.50
2019-01-20T01:59:41.987Z,8.50
2019-01-20T02:02:13.411Z,8.50
2019-01-20T02:04:44.510Z,8.50
2019-01-20T02:07:16.374Z,8.60
2019-01-20T02:09:47.620Z,8.50
2019-01-20T02:12:18.812Z,8.50
2019-01-20T02:14:50.396Z,8.50
2019-01-20T02:17:21.733Z,8.60
2019-01-20T02:19:53.002Z,8.60
2019-01-20T02:22:24.300Z,8.60
2019-01-20T02:24:55.698Z,8.60
2019-01-20T02:27:28.005Z,8.60
2019-01-20T02:29:59.349Z,8.50
2019-01-20T02:32:30.744Z,8.50
2019-01-20T02:35:01.962Z,8.50
2019-01-20T02:37:33.210Z,8.40
2019-01-20T02:40:05.044Z,8.50
2019-01-20T02:42:36.312Z,8.40
2019-01-20T02:45:08.596Z,8.30
2019-01-20T02:47:40.158Z,8.30
2019-01-20T02:50:13.382Z,8.30
2019-01-20T02:52:44.974Z,8.30
2019-01-20T02:55:16.406Z,8.30
2019-01-20T02:57:47.763Z,8.20
2019-01-20T03:00:21.536Z,8.20
2019-01-20T03:02:53.059Z,8.30
2019-01-20T03:05:25.646Z,8.20
2019-01-20T03:07:56.885Z,8.10
2019-01-20T03:10:28.466Z,8.20
2019-01-20T03:12:59.733Z,8.10
2019-01-20T03:15:31.042Z,8.20
2019-01-20T03:18:02.594Z,8.20
2019-01-20T03:20:33.838Z,8.20
2019-01-20T03:23:05.157Z,8.20
2019-01-20T03:25:36.538Z,8.20
2019-01-20T03:28:07.914Z,8.20
2019-01-20T03:30:39.171Z,8.30
2019-01-20T03:33:10.656Z,8.30
2019-01-20T03:35:41.875Z,8.30
2019-01-20T03:38:13.229Z,8.20
2019-01-20T03:40:44.474Z,8.30
2019-01-20T03:43:16.206Z,8.30
2019-01-20T03:45:47.482Z,8.30
2019-01-20T03:48:18.912Z,8.30
2019-01-20T03:50:50.474Z,8.20
2019-01-20T03:53:21.957Z,8.20
2019-01-20T03:55:53.182Z,8.10
2019-01-20T03:58:24.579Z,8.00
2019-01-20T04:00:55.824Z,8.00
2019-01-20T04:03:27.517Z,8.10
2019-01-20T04:05:58.847Z,8.00
2019-01-20T04:08:30.237Z,8.00
2019-01-20T04:11:01.347Z,8.00
2019-01-20T04:13:32.717Z,8.00
2019-01-20T04:16:03.958Z,8.00
2019-01-20T04:18:35.291Z,8.10
2019-01-20T04:21:06.493Z,8.10
2019-01-20T04:23:38.872Z,8.10
2019-01-20T04:26:09.944Z,8.10
2019-01-20T04:28:41.772Z,8.10
2019-01-20T04:31:13.242Z,8.10
2019-01-20T04:33:44.542Z,8.10
2019-01-20T04:36:16.091Z,8.10
2019-01-20T04:38:48.649Z,8.00
2019-01-20T04:41:20.133Z,7.90
2019-01-20T04:43:52.478Z,7.70
2019-01-20T04:46:23.754Z,7.60
2019-01-20T04:48:55.105Z,7.40
2019-01-20T04:51:26.229Z,7.10
2019-01-20T04:54:09.437Z,6.90
2019-01-20T04:56:40.491Z,6.90
2019-01-20T04:59:11.841Z,7.10
2019-01-20T05:01:43.127Z,7.20
2019-01-20T05:04:14.517Z,7.00
2019-01-20T05:06:45.744Z,6.70
2019-01-20T05:09:17.096Z,6.70
2019-01-20T05:11:48.503Z,6.70
2019-01-20T05:14:19.853Z,6.70
2019-01-20T05:16:52.442Z,6.80
2019-01-20T05:19:34.838Z,6.80
2019-01-20T05:22:06.169Z,7.00
2019-01-20T05:24:37.550Z,7.40
2019-01-20T05:27:10.988Z,7.60
2019-01-20T05:29:42.912Z,7.70
2019-01-20T05:32:14.401Z,7.70
2019-01-20T05:34:45.632Z,7.80
2019-01-20T05:37:17.107Z,7.80
2019-01-20T05:39:48.388Z,7.90
2019-01-20T05:42:20.362Z,7.90
2019-01-20T05:44:51.573Z,7.90
2019-01-20T05:47:22.902Z,7.90
2019-01-20T05:49:54.125Z,7.90
2019-01-20T05:52:26.351Z,8.00
2019-01-20T05:54:57.655Z,8.00
2019-01-20T05:57:29.056Z,8.00
2019-01-20T06:00:00.419Z,8.10
2019-01-20T06:02:31.904Z,8.10
2019-01-20T06:05:03.291Z,8.20
2019-01-20T06:07:34.689Z,8.20
2019-01-20T06:10:07.515Z,8.20
2019-01-20T06:12:38.866Z,8.20
2019-01-20T06:15:13.344Z,8.30
2019-01-20T06:17:44.607Z,8.30
2019-01-20T06:20:17.192Z,8.30
2019-01-20T06:22:48.654Z,8.20
2019-01-20T06:25:20.041Z,8.20
2019-01-20T06:27:51.383Z,8.10
2019-01-20T06:30:33.524Z,8.20
2019-01-20T06:33:06.062Z,8.10
2019-01-20T06:35:38.067Z,8.10
2019-01-20T06:38:28.296Z,8.20
2019-01-20T06:41:00.546Z,8.40
2019-01-20T06:43:32.578Z,8.60
2019-01-20T06:46:03.900Z,8.80
2019-01-20T06:48:35.224Z,9.00
2019-01-20T06:51:06.585Z,9.30
2019-01-20T06:53:37.894Z,9.60
2019-01-20T06:56:09.336Z,9.80
2019-01-20T06:58:40.651Z,10.00
2019-01-20T07:01:12.435Z,10.30
2019-01-20T07:03:45.469Z,10.50
2019-01-20T07:06:16.847Z,10.70
2019-01-20T07:08:49.073Z,11.00
2019-01-20T07:11:20.374Z,11.20
2019-01-20T07:13:52.634Z,11.30
2019-01-20T07:16:23.842Z,11.20
2019-01-20T07:18:54.956Z,10.90
2019-01-20T07:21:26.270Z,11.10
2019-01-20T07:23:57.784Z,11.30
2019-01-20T07:26:29.025Z,11.40
2019-01-20T07:29:00.261Z,11.60
2019-01-20T07:31:31.593Z,11.70
2019-01-20T07:34:02.857Z,11.50
2019-01-20T07:36:34.497Z,11.30
2019-01-20T07:39:08.018Z,11.70
2019-01-20T07:41:39.853Z,12.10
2019-01-20T07:44:11.591Z,12.50
2019-01-20T07:46:43.326Z,12.80
2019-01-20T07:49:26.774Z,12.50
2019-01-20T07:51:58.131Z,12.60
2019-01-20T07:54:29.537Z,12.70
2019-01-20T07:57:02.190Z,13.00
2019-01-20T07:59:33.868Z,13.40
2019-01-20T08:02:05.095Z,13.60
2019-01-20T08:04:37.766Z,13.60
2019-01-20T08:07:09.123Z,13.20
2019-01-20T08:09:40.442Z,12.80
2019-01-20T08:12:11.935Z,12.60
2019-01-20T08:14:43.479Z,12.70
2019-01-20T08:17:14.896Z,12.40
2019-01-20T08:19:46.220Z,12.30
2019-01-20T08:22:18.423Z,12.10
2019-01-20T08:24:49.836Z,11.90
2019-01-20T08:27:21.183Z,11.90
2019-01-20T08:29:52.488Z,11.80
2019-01-20T08:32:23.835Z,12.10
2019-01-20T08:34:56.570Z,12.50
2019-01-20T08:37:29.085Z,12.60
2019-01-20T08:40:00.335Z,12.40
2019-01-20T08:42:31.654Z,12.20
2019-01-20T08:45:02.892Z,11.90
2019-01-20T08:47:38.262Z,11.90
2019-01-20T08:50:13.102Z,11.80
2019-01-20T08:52:44.324Z,11.60
2019-01-20T08:55:15.751Z,11.50
2019-01-20T08:57:48.080Z,11.50
2019-01-20T09:00:20.676Z,11.60
2019-01-20T09:02:53.222Z,11.60
2019-01-20T09:05:25.737Z,11.60
2019-01-20T09:07:56.960Z,11.60
2019-01-20T09:10:29.015Z,12.10
2019-01-20T09:13:04.366Z,12.20
2019-01-20T09:15:36.062Z,12.30
2019-01-20T09:18:08.899Z,12.20
2019-01-20T09:20:41.548Z,12.20
2019-01-20T09:23:13.870Z,12.20
2019-01-20T09:25:45.353Z,12.20
2019-01-20T09:28:16.571Z,12.30
2019-01-20T09:30:47.980Z,12.10
2019-01-20T09:33:24.579Z,12.40
2019-01-20T09:35:52.662Z,12.60
2019-01-20T09:38:24.078Z,12.50
2019-01-20T09:40:55.389Z,12.60
2019-01-20T09:43:27.523Z,12.60
2019-01-20T09:45:59.416Z,12.50
2019-01-20T09:48:30.802Z,12.30
2019-01-20T09:51:02.283Z,12.40
2019-01-20T09:53:33.727Z,12.40
2019-01-20T09:56:05.604Z,12.30
2019-01-20T09:58:38.100Z,12.60
2019-01-20T10:01:09.503Z,12.70
2019-01-20T10:03:41.196Z,12.60
2019-01-20T10:06:12.739Z,12.50
2019-01-20T10:08:43.939Z,12.50
2019-01-20T10:11:15.055Z,12.50
2019-01-20T10:13:46.582Z,12.40
2019-01-20T10:16:17.944Z,12.20
2019-01-20T10:18:49.138Z,12.40
2019-01-20T10:21:20.907Z,12.30
2019-01-20T10:23:52.121Z,12.30
2019-01-20T10:26:23.628Z,12.30
2019-01-20T10:28:55.301Z,12.00
2019-01-20T10:31:28.323Z,12.00
2019-01-20T10:34:00.144Z,12.00
2019-01-20T10:36:31.504Z,12.00
2019-01-20T10:39:03.259Z,12.10
2019-01-20T10:41:34.593Z,12.10
2019-01-20T10:44:05.847Z,12.00
2019-01-20T10:46:37.253Z,11.80
2019-01-20T10:49:08.657Z,11.90
2019-01-20T10:51:40.011Z,11.90
2019-01-20T10:54:12.426Z,11.90
2019-01-20T10:56:43.864Z,11.90
2019-01-20T10:59:16.412Z,11.90
2019-01-20T11:01:47.740Z,11.90
2019-01-20T11:04:19.503Z,11.90
2019-01-20T11:07:02.284Z,12.00
2019-01-20T11:09:34.140Z,12.00
2019-01-20T11:12:05.597Z,12.00
2019-01-20T11:14:36.854Z,12.10
2019-01-20T11:17:08.540Z,12.10
2019-01-20T11:19:40.092Z,12.00
2019-01-20T11:22:11.531Z,12.10
2019-01-20T11:24:42.850Z,12.10
2019-01-20T11:27:14.258Z,12.20
2019-01-20T11:29:45.686Z,12.10
2019-01-20T11:32:17.603Z,12.20
2019-01-20T11:34:50.361Z,12.30
2019-01-20T11:37:21.592Z,12.30
2019-01-20T11:39:52.945Z,12.30
2019-01-20T11:42:25.439Z,12.50
2019-01-20T11:44:57.052Z,12.50
2019-01-20T11:47:28.316Z,12.50
2019-01-20T11:49:59.806Z,12.70
2019-01-20T11:52:31.068Z,12.90
2019-01-20T11:55:02.418Z,13.00
2019-01-20T11:57:33.639Z,13.00
2019-01-20T12:00:06.178Z,13.10
2019-01-20T12:02:37.485Z,13.10
2019-01-20T12:05:10.510Z,13.20
2019-01-20T12:07:42.018Z,13.20
2019-01-20T12:10:14.162Z,13.20
2019-01-20T12:12:48.620Z,13.20
2019-01-20T12:15:19.889Z,13.30
2019-01-20T12:17:51.214Z,13.50
2019-01-20T12:20:22.494Z,13.70
2019-01-20T12:22:53.989Z,13.80
2019-01-20T12:25:25.355Z,13.90
2019-01-20T12:27:56.548Z,14.10
2019-01-20T12:30:29.636Z,14.10
2019-01-20T12:33:00.881Z,14.30
2019-01-20T12:35:32.230Z,14.40
2019-01-20T12:38:04.273Z,14.50
2019-01-20T12:40:41.115Z,14.30
2019-01-20T12:43:12.463Z,14.20
2019-01-20T12:45:43.769Z,14.10
2019-01-20T12:48:15.233Z,14.00
2019-01-20T12:50:46.656Z,14.30
2019-01-20T12:53:18.783Z,14.50
2019-01-20T12:55:50.126Z,14.90
2019-01-20T12:58:21.580Z,15.00
2019-01-20T13:00:52.922Z,15.10
2019-01-20T13:03:24.180Z,15.20
2019-01-20T13:05:55.673Z,15.10
2019-01-20T13:08:28.274Z,15.10
2019-01-20T13:11:01.237Z,15.20
2019-01-20T13:13:33.849Z,15.20
2019-01-20T13:16:05.602Z,15.10
2019-01-20T13:18:37.019Z,15.00
2019-01-20T13:21:08.453Z,14.90
2019-01-20T13:23:40.912Z,14.70
2019-01-20T13:26:31.101Z,14.60
2019-01-20T13:29:02.603Z,14.40
2019-01-20T13:31:34.964Z,14.20
2019-01-20T13:34:06.452Z,14.20
2019-01-20T13:36:37.971Z,14.10
2019-01-20T13:39:12.734Z,14.00
2019-01-20T13:41:44.594Z,13.90
2019-01-20T13:44:16.913Z,13.80
2019-01-20T13:46:48.875Z,13.70
2019-01-20T13:49:23.112Z,13.70
2019-01-20T13:51:55.040Z,13.70
2019-01-20T13:54:27.057Z,13.70
2019-01-20T13:56:58.272Z,13.60
2019-01-20T13:59:29.681Z,13.70
2019-01-20T14:02:01.454Z,13.60
2019-01-20T14:04:32.887Z,13.70
2019-01-20T14:07:04.266Z,13.60
2019-01-20T14:09:36.143Z,13.70
2019-01-20T14:12:07.544Z,13.60
2019-01-20T14:14:38.811Z,13.50
2019-01-20T14:17:10.106Z,13.40
2019-01-20T14:19:41.228Z,13.40
2019-01-20T14:22:13.505Z,13.30
2019-01-20T14:24:44.944Z,13.20
2019-01-20T14:27:16.132Z,13.00
2019-01-20T14:29:47.578Z,12.70
2019-01-20T14:32:19.233Z,12.60
2019-01-20T14:34:50.617Z,12.60
2019-01-20T14:37:22.103Z,12.40
2019-01-20T14:39:53.436Z,12.20
2019-01-20T14:42:24.799Z,12.10
2019-01-20T14:45:01.039Z,11.90
2019-01-20T14:47:30.158Z,11.70
2019-01-20T14:50:01.319Z,11.50
2019-01-20T14:52:33.879Z,11.50
2019-01-20T14:55:05.981Z,11.40
2019-01-20T14:57:37.495Z,11.40
2019-01-20T15:00:14.885Z,11.20
2019-01-20T15:02:46.296Z,11.20
2019-01-20T15:05:17.751Z,11.20
2019-01-20T15:07:49.610Z,11.10
2019-01-20T15:10:21.765Z,11.10
2019-01-20T15:12:54.308Z,11.10
2019-01-20T15:15:29.767Z,11.20
2019-01-20T15:18:01.045Z,11.30
2019-01-20T15:20:32.383Z,11.40
2019-01-20T15:23:03.948Z,11.50
2019-01-20T15:25:35.592Z,11.50
2019-01-20T15:28:08.127Z,11.60
2019-01-20T15:30:39.528Z,11.50
2019-01-20T15:33:10.749Z,11.50
2019-01-20T15:35:41.926Z,11.50
2019-01-20T15:38:13.290Z,11.50
2019-01-20T15:40:44.850Z,11.40
2019-01-20T15:43:17.066Z,11.30
2019-01-20T15:45:48.395Z,11.40
2019-01-20T15:48:20.085Z,11.40
2019-01-20T15:50:52.015Z,11.40
2019-01-20T15:53:23.342Z,11.10
2019-01-20T15:55:54.821Z,11.00
2019-01-20T15:58:27.140Z,10.90
2019-01-20T16:00:58.446Z,11.00
2019-01-20T16:03:29.754Z,10.90
2019-01-20T16:06:01.111Z,10.80
2019-01-20T16:08:32.170Z,10.70
2019-01-20T16:11:03.667Z,10.60
2019-01-20T16:13:35.890Z,10.40
2019-01-20T16:16:07.813Z,10.30
2019-01-20T16:18:39.203Z,10.20
2019-01-20T16:21:11.687Z,10.20
2019-01-20T16:23:43.175Z,10.30
2019-01-20T16:26:14.915Z,10.40
2019-01-20T16:28:46.949Z,10.40
2019-01-20T16:31:18.922Z,10.50
2019-01-20T16:33:50.529Z,10.40
2019-01-20T16:36:21.841Z,10.30
2019-01-20T16:38:53.252Z,10.10
2019-01-20T16:41:25.727Z,10.00
2019-01-20T16:43:56.970Z,9.90
2019-01-20T16:46:28.399Z,9.70
2019-01-20T16:49:00.486Z,9.70
2019-01-20T16:51:31.986Z,9.60
2019-01-20T16:54:04.131Z,9.50
2019-01-20T16:56:35.330Z,9.40
2019-01-20T16:59:07.319Z,9.30
2019-01-20T17:01:38.706Z,9.20
2019-01-20T17:04:09.928Z,9.10
2019-01-20T17:06:41.137Z,9.10
2019-01-20T17:09:12.559Z,9.10
2019-01-20T17:11:43.922Z,9.00
2019-01-20T17:14:15.168Z,9.00
2019-01-20T17:16:46.490Z,9.00
2019-01-20T17:19:18.227Z,9.00
2019-01-20T17:21:50.165Z,8.90
2019-01-20T17:24:21.876Z,9.30
2019-01-20T17:26:53.222Z,9.60
2019-01-20T17:29:24.339Z,9.70
2019-01-20T17:31:55.664Z,9.60
2019-01-20T17:34:26.969Z,9.40
2019-01-20T17:36:58.269Z,9.30
2019-01-20T17:39:29.664Z,9.10
2019-01-20T17:42:01.024Z,9.00
2019-01-20T17:44:45.327Z,8.90
2019-01-20T17:47:17.663Z,8.70
2019-01-20T17:49:48.972Z,8.70
2019-01-20T17:52:20.292Z,8.60
2019-01-20T17:54:52.605Z,8.60
2019-01-20T17:57:24.156Z,8.80
2019-01-20T17:59:55.464Z,8.90
2019-01-20T18:02:27.094Z,9.00
2019-01-20T18:04:58.625Z,8.80
2019-01-20T18:07:41.990Z,8.50
2019-01-20T18:10:13.585Z,8.40
2019-01-20T18:12:44.885Z,8.30
2019-01-20T18:15:17.498Z,8.20
2019-01-20T18:17:48.809Z,8.20
2019-01-20T18:20:22.632Z,8.10
2019-01-20T18:22:54.748Z,8.00
2019-01-20T18:25:26.507Z,8.00
2019-01-20T18:27:58.136Z,8.00
2019-01-20T18:30:29.978Z,7.90
2019-01-20T18:33:02.106Z,7.90
2019-01-20T18:35:34.729Z,7.90
2019-01-20T18:38:07.673Z,7.90
2019-01-20T18:40:40.301Z,7.80
2019-01-20T18:43:11.766Z,7.70
2019-01-20T18:45:43.194Z,7.70
2019-01-20T18:48:14.592Z,7.70
2019-01-20T18:50:46.398Z,7.60
2019-01-20T18:53:17.769Z,7.60
2019-01-20T18:55:49.097Z,7.70
2019-01-20T18:58:20.425Z,7.80
2019-01-20T19:00:53.369Z,7.80
2019-01-20T19:03:24.965Z,7.90
2019-01-20T19:05:56.415Z,7.90
2019-01-20T19:08:28.137Z,8.00
2019-01-20T19:10:59.569Z,8.10
2019-01-20T19:13:33.362Z,8.00
2019-01-20T19:16:09.073Z,8.10
2019-01-20T19:18:38.810Z,8.10
2019-01-20T19:21:10.158Z,8.10
2019-01-20T19:23:53.442Z,8.10
2019-01-20T19:26:25.587Z,8.20
2019-01-20T19:29:02.938Z,8.20
2019-01-20T19:31:29.912Z,8.20
2019-01-20T19:34:01.423Z,8.20
2019-01-20T19:36:33.097Z,8.30
2019-01-20T19:39:06.084Z,8.30
2019-01-20T19:41:38.483Z,8.20
2019-01-20T19:44:09.776Z,8.20
2019-01-20T19:46:42.443Z,8.30
2019-01-20T19:49:13.631Z,8.30
2019-01-20T19:51:45.118Z,8.40
2019-01-20T19:54:16.632Z,8.50
2019-01-20T19:56:49.666Z,8.50
2019-01-20T19:59:21.107Z,8.60
2019-01-20T20:01:52.567Z,8.50
2019-01-20T20:04:23.819Z,8.40
2019-01-20T20:06:55.932Z,8.40
2019-01-20T20:09:27.334Z,8.40
2019-01-20T20:11:58.747Z,8.50
2019-01-20T20:14:29.983Z,8.50
2019-01-20T20:17:01.648Z,8.40
2019-01-20T20:19:32.843Z,8.40
2019-01-20T20:22:04.190Z,8.30
2019-01-20T20:24:35.333Z,8.30
2019-01-20T20:27:06.541Z,8.20
2019-01-20T20:29:37.789Z,8.20
2019-01-20T20:32:09.195Z,8.20
2019-01-20T20:35:00.032Z,8.20
2019-01-20T20:37:31.721Z,8.10
2019-01-20T20:40:03.392Z,7.90
2019-01-20T20:42:34.853Z,7.90
2019-01-20T20:45:08.937Z,7.90
2019-01-20T20:47:40.274Z,7.90
2019-01-20T20:50:12.828Z,8.00
2019-01-20T20:52:46.073Z,8.50
2019-01-20T20:55:17.343Z,8.70
2019-01-20T20:57:48.767Z,8.70
2019-01-20T21:00:39.024Z,8.60
2019-01-20T21:03:19.551Z,8.50
2019-01-20T21:05:51.780Z,8.40
2019-01-20T21:08:23.066Z,8.30
2019-01-20T21:10:56.395Z,8.30
2019-01-20T21:13:27.767Z,8.20
2019-01-20T21:15:58.991Z,8.10
2019-01-20T21:18:30.404Z,8.00
2019-01-20T21:21:01.650Z,8.00
2019-01-20T21:23:32.897Z,8.10
2019-01-20T21:26:05.134Z,8.10
2019-01-20T21:28:38.005Z,8.10
2019-01-20T21:31:10.020Z,8.00
2019-01-20T21:33:41.421Z,8.10
2019-01-20T21:36:12.747Z,8.00
2019-01-20T21:38:45.096Z,8.00
2019-01-20T21:41:16.524Z,8.00
2019-01-20T21:43:47.819Z,7.90
2019-01-20T21:46:19.292Z,7.80
2019-01-20T21:48:50.728Z,7.80
2019-01-20T21:51:23.037Z,7.70
2019-01-20T21:53:54.512Z,7.80
2019-01-20T21:56:25.897Z,7.90
2019-01-20T21:58:57.261Z,7.90
2019-01-20T22:01:29.667Z,7.90
2019-01-20T22:04:01.072Z,7.80
2019-01-20T22:06:32.308Z,7.80
2019-01-20T22:09:03.953Z,7.80
2019-01-20T22:11:36.856Z,7.80
2019-01-20T22:14:08.521Z,7.80
2019-01-20T22:16:39.876Z,7.70
2019-01-20T22:19:11.176Z,7.70
2019-01-20T22:21:42.804Z,7.60
2019-01-20T22:24:15.297Z,7.60
2019-01-20T22:26:46.680Z,7.60
2019-01-20T22:29:17.898Z,7.60
2019-01-20T22:31:49.262Z,7.60
2019-01-20T22:34:20.577Z,7.50
2019-01-20T22:36:52.015Z,7.50
2019-01-20T22:39:23.342Z,7.40
2019-01-20T22:41:54.735Z,7.40
2019-01-20T22:44:26.081Z,7.30
2019-01-20T22:47:00.260Z,7.20
2019-01-20T22:49:30.403Z,7.20
2019-01-20T22:52:01.774Z,7.10
2019-01-20T22:54:33.157Z,7.10
2019-01-20T22:57:04.786Z,7.10
2019-01-20T22:59:47.513Z,7.10
2019-01-20T23:02:18.746Z,7.10
2019-01-20T23:04:49.981Z,7.10
2019-01-20T23:07:32.595Z,7.30
2019-01-20T23:10:15.306Z,7.20
2019-01-20T23:12:46.731Z,7.10
2019-01-20T23:15:18.111Z,6.90
2019-01-20T23:17:50.371Z,6.70
2019-01-20T23:20:21.793Z,6.70
2019-01-20T23:22:52.951Z,6.60
2019-01-20T23:25:24.298Z,6.50
2019-01-20T23:27:55.520Z,6.40
2019-01-20T23:30:26.779Z,6.50
2019-01-20T23:32:58.146Z,6.60
2019-01-20T23:35:29.365Z,6.70
2019-01-20T23:38:00.619Z,6.80
2019-01-20T23:40:31.867Z,6.70
2019-01-20T23:43:03.079Z,6.50
2019-01-20T23:45:34.438Z,6.50
2019-01-20T23:48:06.119Z,6.50
2019-01-20T23:50:37.608Z,6.50
2019-01-20T23:53:08.760Z,6.30
2019-01-20T23:55:40.033Z,6.00
2019-01-20T23:58:11.396Z,6.10
